createdAt,value
2018-05-21T00:00:55.049Z,51.10
2018-05-21T00:03:22.880Z,51.10
2018-05-21T00:05:50.680Z,51.10
2018-05-21T00:08:18.506Z,51.70
2018-05-21T00:10:46.304Z,51.60
2018-05-21T00:13:14.162Z,51.70
2018-05-21T00:15:42.739Z,53.30
2018-05-21T00:18:10.612Z,52.70
2018-05-21T00:20:38.478Z,53.40
2018-05-21T00:23:07.058Z,55.10
2018-05-21T00:25:35.737Z,54.90
2018-05-21T00:28:03.612Z,54.90
2018-05-21T00:30:31.469Z,55.30
2018-05-21T00:33:00.048Z,57.90
2018-05-21T00:35:27.910Z,57.90
2018-05-21T00:37:55.877Z,57.50
2018-05-21T00:40:24.564Z,59.60
2018-05-21T00:42:53.144Z,61.80
2018-05-21T00:45:21.727Z,62.50
2018-05-21T00:47:50.370Z,62.40
2018-05-21T00:50:18.183Z,62.40
2018-05-21T00:52:46.816Z,63.80
2018-05-21T00:55:26.223Z,63.70
2018-05-21T00:57:53.988Z,64.30
2018-05-21T01:00:21.716Z,65.10
2018-05-21T01:02:49.476Z,67.20
2018-05-21T01:05:17.211Z,68.60
2018-05-21T01:07:45.000Z,68.80
2018-05-21T01:10:13.573Z,70.00
2018-05-21T01:12:41.544Z,69.80
2018-05-21T01:15:10.125Z,71.10
2018-05-21T01:17:38.703Z,70.00
2018-05-21T01:20:07.386Z,70.10
2018-05-21T01:22:35.967Z,70.10
2018-05-21T01:25:03.832Z,70.10
2018-05-21T01:27:32.415Z,72.10
2018-05-21T01:30:01.055Z,71.30
2018-05-21T01:32:28.822Z,71.30
2018-05-21T01:34:56.653Z,70.50
2018-05-21T01:37:25.200Z,70.20
2018-05-21T01:39:53.067Z,70.40
2018-05-21T01:42:21.643Z,71.30
2018-05-21T01:44:49.510Z,71.30
2018-05-21T01:47:17.372Z,72.60
2018-05-21T01:49:45.239Z,72.50
2018-05-21T01:52:13.918Z,76.40
2018-05-21T01:54:41.784Z,76.40
2018-05-21T01:57:09.649Z,78.60
2018-05-21T01:59:37.417Z,78.60
2018-05-21T02:02:05.274Z,78.80
2018-05-21T02:04:33.966Z,80.40
2018-05-21T02:07:01.829Z,80.40
2018-05-21T02:09:30.406Z,81.70
2018-05-21T02:11:58.197Z,81.60
2018-05-21T02:14:25.945Z,81.40
2018-05-21T02:16:53.695Z,83.20
2018-05-21T02:19:21.466Z,83.90
2018-05-21T02:21:49.234Z,82.50
2018-05-21T02:24:17.908Z,84.40
2018-05-21T02:26:45.660Z,84.40
2018-05-21T02:29:13.559Z,84.30
2018-05-21T02:31:42.184Z,86.20
2018-05-21T02:34:10.070Z,86.20
2018-05-21T02:36:37.935Z,87.60
2018-05-21T02:39:06.723Z,88.40
2018-05-21T02:41:34.584Z,88.90
2018-05-21T02:44:02.448Z,89.80
2018-05-21T02:46:31.130Z,90.40
2018-05-21T02:48:58.996Z,90.40
2018-05-21T02:51:27.678Z,91.50
2018-05-21T02:53:55.610Z,91.50
2018-05-21T02:56:23.509Z,91.40
2018-05-21T02:58:51.373Z,91.40
2018-05-21T03:01:19.237Z,91.10
2018-05-21T03:03:47.104Z,90.80
2018-05-21T03:06:15.784Z,90.70
2018-05-21T03:08:44.366Z,91.10
2018-05-21T03:11:12.228Z,91.10
2018-05-21T03:13:40.093Z,91.00
2018-05-21T03:16:07.856Z,91.30
2018-05-21T03:18:35.725Z,91.70
2018-05-21T03:21:03.587Z,91.70
2018-05-21T03:23:31.460Z,92.40
2018-05-21T03:26:00.029Z,92.30
2018-05-21T03:28:27.804Z,92.50
2018-05-21T03:30:55.528Z,92.90
2018-05-21T03:33:23.292Z,93.70
2018-05-21T03:35:51.034Z,93.10
2018-05-21T03:38:18.799Z,85.50
2018-05-21T03:40:46.523Z,74.80
2018-05-21T03:43:14.319Z,67.60
2018-05-21T03:45:42.087Z,64.10
2018-05-21T03:48:09.887Z,64.70
2018-05-21T03:50:38.568Z,66.90
2018-05-21T03:53:06.439Z,66.90
2018-05-21T03:55:34.297Z,66.10
2018-05-21T03:58:02.878Z,63.10
2018-05-21T04:00:43.235Z,65.00
2018-05-21T04:03:23.591Z,63.60
2018-05-21T04:05:51.455Z,63.70
2018-05-21T04:08:19.216Z,63.20
2018-05-21T04:10:47.083Z,64.30
2018-05-21T04:13:14.948Z,60.90
2018-05-21T04:15:42.789Z,60.10
2018-05-21T04:18:10.680Z,57.00
2018-05-21T04:20:39.254Z,57.00
2018-05-21T04:23:07.121Z,57.60
2018-05-21T04:25:35.079Z,59.40
2018-05-21T04:28:02.957Z,58.50
2018-05-21T04:30:30.776Z,57.70
2018-05-21T04:32:58.682Z,58.10
2018-05-21T04:35:26.522Z,57.60
2018-05-21T04:37:54.538Z,60.80
2018-05-21T04:40:23.192Z,60.60
2018-05-21T04:42:51.774Z,62.20
2018-05-21T04:45:19.512Z,62.00
2018-05-21T04:47:47.274Z,61.80
2018-05-21T04:50:15.121Z,59.60
2018-05-21T04:52:42.927Z,58.90
2018-05-21T04:55:10.690Z,58.80
2018-05-21T04:57:38.436Z,59.30
2018-05-21T05:00:06.202Z,58.50
2018-05-21T05:02:35.823Z,56.70
2018-05-21T05:05:04.000Z,56.30
2018-05-21T05:07:32.571Z,54.50
2018-05-21T05:10:00.430Z,54.50
2018-05-21T05:12:29.012Z,50.70
2018-05-21T05:14:57.600Z,48.10
2018-05-21T05:17:25.460Z,48.10
2018-05-21T05:19:53.320Z,44.40
2018-05-21T05:22:21.393Z,42.10
2018-05-21T05:24:49.975Z,35.90
2018-05-21T05:27:17.834Z,35.70
2018-05-21T05:29:45.699Z,34.30
2018-05-21T05:32:13.562Z,31.70
2018-05-21T05:34:41.496Z,32.80
2018-05-21T05:37:09.396Z,32.30
2018-05-21T05:39:37.976Z,29.50
2018-05-21T05:42:05.900Z,29.50
2018-05-21T05:44:33.704Z,28.20
2018-05-21T05:47:02.387Z,24.20
2018-05-21T05:49:30.251Z,24.20
2018-05-21T05:51:58.153Z,23.50
2018-05-21T05:54:26.688Z,19.90
2018-05-21T05:56:54.565Z,19.80
2018-05-21T05:59:22.332Z,19.50
2018-05-21T06:01:50.080Z,19.80
2018-05-21T06:04:17.952Z,19.90
2018-05-21T06:06:45.771Z,18.40
2018-05-21T06:09:13.540Z,17.60
2018-05-21T06:11:41.293Z,17.90
2018-05-21T06:14:09.078Z,17.30
2018-05-21T06:16:36.808Z,18.40
2018-05-21T06:19:04.623Z,18.00
2018-05-21T06:21:32.352Z,16.90
2018-05-21T06:24:00.112Z,15.40
2018-05-21T06:26:28.033Z,15.50
2018-05-21T06:28:56.594Z,15.00
2018-05-21T06:31:24.352Z,15.10
2018-05-21T06:33:52.159Z,16.80
2018-05-21T06:36:19.976Z,17.60
2018-05-21T06:38:47.841Z,16.90
2018-05-21T06:41:15.706Z,15.70
2018-05-21T06:43:43.450Z,16.10
2018-05-21T06:46:11.245Z,16.10
2018-05-21T06:48:39.813Z,14.60
2018-05-21T06:51:07.543Z,14.50
2018-05-21T06:53:35.314Z,14.40
2018-05-21T06:56:03.061Z,14.40
2018-05-21T06:58:31.883Z,14.00
2018-05-21T07:00:59.626Z,13.80
2018-05-21T07:03:27.389Z,13.30
2018-05-21T07:05:55.142Z,12.80
2018-05-21T07:08:22.911Z,12.00
2018-05-21T07:10:50.653Z,11.40
2018-05-21T07:13:18.421Z,12.80
2018-05-21T07:15:46.184Z,12.10
2018-05-21T07:18:14.007Z,11.00
2018-05-21T07:20:41.942Z,10.30
2018-05-21T07:23:09.677Z,10.70
2018-05-21T07:25:37.447Z,11.00
2018-05-21T07:28:05.177Z,10.30
2018-05-21T07:30:32.966Z,9.30
2018-05-21T07:33:00.697Z,8.50
2018-05-21T07:35:28.465Z,10.20
2018-05-21T07:37:56.221Z,12.80
2018-05-21T07:40:23.997Z,11.70
2018-05-21T07:42:51.739Z,11.60
2018-05-21T07:45:19.504Z,11.10
2018-05-21T07:47:47.251Z,10.30
2018-05-21T07:50:15.816Z,8.80
2018-05-21T07:52:44.328Z,7.30
2018-05-21T07:55:12.060Z,7.20
2018-05-21T07:57:40.685Z,9.00
2018-05-21T08:00:08.566Z,9.00
2018-05-21T08:02:36.353Z,11.10
2018-05-21T08:05:04.215Z,12.10
2018-05-21T08:07:32.075Z,11.10
2018-05-21T08:09:59.807Z,9.80
2018-05-21T08:12:27.614Z,11.60
2018-05-21T08:14:56.237Z,12.10
2018-05-21T08:17:24.148Z,11.50
2018-05-21T08:19:52.011Z,10.60
2018-05-21T08:22:19.775Z,9.70
2018-05-21T08:24:47.588Z,9.20
2018-05-21T08:27:15.330Z,9.50
2018-05-21T08:29:43.979Z,10.20
2018-05-21T08:32:11.715Z,10.80
2018-05-21T08:34:39.485Z,7.50
2018-05-21T08:37:07.228Z,7.80
2018-05-21T08:39:34.988Z,8.50
2018-05-21T08:42:02.713Z,9.50
2018-05-21T08:44:31.249Z,10.80
2018-05-21T08:46:58.975Z,10.70
2018-05-21T08:49:26.779Z,9.80
2018-05-21T08:51:54.553Z,9.40
2018-05-21T08:54:22.417Z,9.00
2018-05-21T08:56:50.200Z,8.30
2018-05-21T08:59:18.705Z,8.80
2018-05-21T09:01:46.460Z,8.90
2018-05-21T09:04:14.191Z,9.50
2018-05-21T09:06:41.964Z,9.40
2018-05-21T09:09:10.469Z,8.70
2018-05-21T09:11:38.253Z,8.70
2018-05-21T09:14:06.002Z,8.30
2018-05-21T09:16:33.893Z,8.40
2018-05-21T09:19:01.591Z,9.00
2018-05-21T09:21:30.146Z,10.30
2018-05-21T09:23:57.922Z,10.20
2018-05-21T09:26:25.683Z,11.30
2018-05-21T09:28:53.446Z,14.30
2018-05-21T09:31:21.179Z,14.90
2018-05-21T09:33:49.757Z,17.60
2018-05-21T09:36:17.513Z,17.50
2018-05-21T09:38:45.283Z,18.00
2018-05-21T09:41:13.014Z,19.20
2018-05-21T09:43:40.773Z,19.50
2018-05-21T09:46:08.506Z,20.60
2018-05-21T09:48:37.109Z,19.80
2018-05-21T09:51:04.928Z,19.80
2018-05-21T09:53:33.620Z,21.70
2018-05-21T09:56:01.384Z,20.60
2018-05-21T09:58:29.116Z,20.30
2018-05-21T10:00:56.892Z,21.50
2018-05-21T10:03:24.620Z,21.60
2018-05-21T10:05:52.401Z,20.70
2018-05-21T10:08:20.153Z,20.10
2018-05-21T10:10:47.945Z,20.50
2018-05-21T10:13:15.771Z,20.20
2018-05-21T10:15:43.688Z,20.40
2018-05-21T10:18:12.253Z,20.10
2018-05-21T10:20:40.036Z,20.00
2018-05-21T10:23:08.608Z,20.70
2018-05-21T10:25:36.459Z,20.50
2018-05-21T10:28:04.299Z,20.40
2018-05-21T10:30:32.191Z,20.20
2018-05-21T10:33:00.051Z,20.90
2018-05-21T10:35:27.798Z,20.50
2018-05-21T10:37:55.641Z,20.90
2018-05-21T10:40:23.442Z,20.80
2018-05-21T10:42:51.217Z,20.30
2018-05-21T10:45:18.940Z,21.10
2018-05-21T10:47:46.710Z,21.50
2018-05-21T10:50:14.439Z,22.00
2018-05-21T10:52:42.244Z,22.50
2018-05-21T10:55:10.113Z,22.50
2018-05-21T10:57:37.918Z,22.50
2018-05-21T11:00:06.486Z,22.70
2018-05-21T11:02:34.340Z,22.80
2018-05-21T11:05:03.003Z,21.90
2018-05-21T11:07:30.867Z,22.00
2018-05-21T11:09:58.735Z,22.70
2018-05-21T11:12:26.555Z,22.40
2018-05-21T11:14:54.319Z,22.20
2018-05-21T11:17:22.054Z,23.60
2018-05-21T11:19:49.820Z,22.90
2018-05-21T11:22:17.555Z,22.50
2018-05-21T11:24:45.376Z,23.00
2018-05-21T11:27:13.134Z,22.90
2018-05-21T11:29:40.872Z,24.40
2018-05-21T11:32:08.651Z,24.40
2018-05-21T11:34:36.453Z,23.60
2018-05-21T11:37:04.317Z,24.00
2018-05-21T11:39:32.050Z,23.40
2018-05-21T11:41:59.941Z,23.70
2018-05-21T11:44:27.808Z,23.70
2018-05-21T11:46:55.773Z,24.00
2018-05-21T11:49:23.637Z,24.40
2018-05-21T11:51:51.420Z,23.70
2018-05-21T11:54:19.936Z,22.80
2018-05-21T11:56:47.743Z,22.70
2018-05-21T11:59:15.609Z,22.70
2018-05-21T12:01:43.472Z,23.60
2018-05-21T12:04:11.337Z,23.20
2018-05-21T12:06:39.916Z,23.80
2018-05-21T12:09:07.784Z,23.80
2018-05-21T12:11:35.532Z,23.50
2018-05-21T12:14:03.409Z,23.60
2018-05-21T12:16:31.175Z,24.10
2018-05-21T12:18:58.936Z,22.60
2018-05-21T12:21:26.712Z,23.40
2018-05-21T12:23:55.375Z,23.20
2018-05-21T12:26:23.124Z,23.20
2018-05-21T12:28:50.900Z,23.70
2018-05-21T12:31:19.467Z,22.80
2018-05-21T12:33:47.208Z,22.80
2018-05-21T12:36:15.006Z,22.50
2018-05-21T12:38:42.753Z,22.20
2018-05-21T12:41:10.515Z,22.40
2018-05-21T12:43:38.256Z,23.60
2018-05-21T12:46:06.020Z,23.50
2018-05-21T12:48:33.766Z,23.50
2018-05-21T12:51:01.675Z,23.30
2018-05-21T12:53:29.539Z,22.30
2018-05-21T12:55:57.378Z,23.00
2018-05-21T12:58:25.168Z,23.20
2018-05-21T13:00:52.922Z,23.10
2018-05-21T13:03:20.791Z,23.80
2018-05-21T13:05:48.556Z,24.20
2018-05-21T13:08:16.386Z,23.80
2018-05-21T13:10:44.182Z,24.20
2018-05-21T13:13:11.969Z,23.60
2018-05-21T13:15:40.468Z,23.50
2018-05-21T13:18:08.284Z,23.50
2018-05-21T13:20:36.127Z,23.10
2018-05-21T13:23:04.016Z,22.60
2018-05-21T13:25:31.885Z,22.60
2018-05-21T13:27:59.745Z,22.40
2018-05-21T13:30:27.606Z,22.40
2018-05-21T13:32:55.340Z,22.30
2018-05-21T13:35:23.105Z,23.50
2018-05-21T13:37:50.907Z,23.30
2018-05-21T13:40:18.760Z,24.00
2018-05-21T13:42:46.625Z,23.40
2018-05-21T13:45:14.471Z,23.50
2018-05-21T13:47:42.347Z,22.50
2018-05-21T13:50:10.316Z,22.50
2018-05-21T13:52:38.047Z,22.20
2018-05-21T13:55:05.920Z,23.40
2018-05-21T13:57:33.728Z,22.50
2018-05-21T14:00:02.325Z,23.10
2018-05-21T14:02:30.358Z,23.00
2018-05-21T14:04:58.164Z,23.10
2018-05-21T14:07:26.012Z,22.60
2018-05-21T14:09:54.055Z,23.20
2018-05-21T14:12:22.125Z,23.80
2018-05-21T14:14:50.907Z,24.20
2018-05-21T14:17:19.279Z,24.20
2018-05-21T14:19:47.146Z,23.70
2018-05-21T14:22:15.935Z,24.10
2018-05-21T14:24:43.903Z,24.00
2018-05-21T14:27:12.790Z,25.00
2018-05-21T14:29:40.689Z,23.50
2018-05-21T14:32:09.239Z,22.70
2018-05-21T14:34:37.198Z,22.70
2018-05-21T14:37:05.986Z,23.80
2018-05-21T14:39:33.849Z,23.80
2018-05-21T14:42:01.822Z,22.90
2018-05-21T14:44:29.664Z,23.60
2018-05-21T14:46:57.652Z,23.50
2018-05-21T14:49:25.622Z,23.00
2018-05-21T14:51:54.400Z,24.20
2018-05-21T14:54:22.472Z,24.20
2018-05-21T14:56:50.335Z,24.60
2018-05-21T14:59:18.401Z,24.30
2018-05-21T15:01:46.375Z,23.90
2018-05-21T15:04:15.054Z,24.20
2018-05-21T15:06:42.915Z,24.20
2018-05-21T15:09:10.901Z,24.10
2018-05-21T15:11:39.671Z,24.60
2018-05-21T15:14:07.636Z,24.60
2018-05-21T15:16:35.707Z,24.60
2018-05-21T15:19:03.520Z,24.80
2018-05-21T15:21:31.353Z,24.20
2018-05-21T15:23:59.171Z,24.40
2018-05-21T15:26:27.013Z,25.50
2018-05-21T15:28:54.921Z,25.20
2018-05-21T15:31:22.991Z,25.20
2018-05-21T15:33:50.794Z,25.80
2018-05-21T15:36:18.599Z,25.70
2018-05-21T15:38:46.481Z,25.80
2018-05-21T15:41:14.348Z,25.20
2018-05-21T15:43:42.214Z,25.40
2018-05-21T15:46:10.175Z,24.60
2018-05-21T15:48:38.037Z,24.80
2018-05-21T15:51:06.619Z,24.40
2018-05-21T15:53:34.464Z,24.40
2018-05-21T15:56:02.273Z,25.00
2018-05-21T15:58:30.887Z,24.50
2018-05-21T16:00:58.701Z,24.40
2018-05-21T16:03:27.480Z,25.00
2018-05-21T16:05:56.266Z,25.10
2018-05-21T16:08:24.084Z,24.70
2018-05-21T16:10:51.932Z,25.20
2018-05-21T16:13:19.961Z,24.40
2018-05-21T16:15:47.927Z,24.60
2018-05-21T16:18:15.790Z,24.70
2018-05-21T16:20:43.755Z,24.60
2018-05-21T16:23:11.725Z,25.40
2018-05-21T16:25:39.576Z,25.10
2018-05-21T16:28:07.394Z,25.10
2018-05-21T16:30:35.267Z,25.00
2018-05-21T16:33:03.068Z,24.90
2018-05-21T16:35:30.878Z,24.80
2018-05-21T16:37:58.732Z,25.00
2018-05-21T16:40:26.534Z,24.60
2018-05-21T16:42:54.384Z,24.40
2018-05-21T16:45:22.183Z,24.60
2018-05-21T16:47:50.081Z,24.50
2018-05-21T16:50:17.912Z,24.90
2018-05-21T16:52:45.751Z,25.30
2018-05-21T16:55:13.603Z,25.10
2018-05-21T16:57:41.431Z,25.20
2018-05-21T17:00:10.101Z,25.00
2018-05-21T17:02:37.926Z,25.00
2018-05-21T17:05:05.728Z,25.00
2018-05-21T17:07:33.521Z,25.50
2018-05-21T18:02:56.351Z,28.70
2018-05-21T18:05:24.250Z,29.30
2018-05-21T18:07:53.214Z,29.30
2018-05-21T18:10:21.037Z,29.80
2018-05-21T18:12:49.446Z,29.90
2018-05-21T18:15:18.129Z,30.50
2018-05-21T18:17:46.157Z,30.60
2018-05-21T18:20:15.658Z,31.20
2018-05-21T18:22:43.565Z,31.20
2018-05-21T18:25:12.305Z,32.00
2018-05-21T18:27:40.113Z,32.00
2018-05-21T18:30:08.227Z,31.90
2018-05-21T18:32:37.070Z,32.70
2018-05-21T18:35:06.678Z,32.70
2018-05-21T18:37:34.641Z,33.20
2018-05-21T18:40:02.611Z,33.00
2018-05-21T18:42:31.179Z,33.40
2018-05-21T18:44:59.675Z,33.50
2018-05-21T18:47:27.964Z,33.40
2018-05-21T18:49:58.192Z,33.50
2018-05-21T18:52:26.858Z,33.30
2018-05-21T18:54:55.629Z,33.90
2018-05-21T18:57:25.410Z,33.90
2018-05-21T18:59:53.410Z,34.20
2018-05-21T19:02:23.222Z,34.90
2018-05-21T19:04:52.006Z,35.10
2018-05-21T19:07:19.867Z,34.80
2018-05-21T19:09:51.147Z,35.20
2018-05-21T19:12:19.894Z,35.00
2018-05-21T19:14:48.884Z,35.00
2018-05-21T19:17:20.569Z,35.70
2018-05-21T19:19:59.784Z,35.50
2018-05-21T19:22:27.609Z,35.30
2018-05-21T19:24:55.409Z,35.20
2018-05-21T19:27:23.265Z,35.70
2018-05-21T19:29:51.241Z,36.10
2018-05-21T19:32:21.892Z,36.70
2018-05-21T19:35:05.350Z,37.10
2018-05-21T19:37:39.290Z,37.00
2018-05-21T19:40:20.958Z,37.10
2018-05-21T19:42:56.581Z,37.00
2018-05-21T19:45:35.408Z,37.50
2018-05-21T19:48:14.225Z,37.20
2018-05-21T19:50:50.918Z,38.20
2018-05-21T19:53:30.568Z,38.40
2018-05-21T19:56:11.214Z,38.90
2018-05-21T19:58:49.067Z,39.80
2018-05-21T20:01:24.204Z,40.50
2018-05-21T20:04:03.553Z,40.50
2018-05-21T20:06:44.949Z,40.40
2018-05-21T20:09:17.588Z,40.30
2018-05-21T20:11:46.762Z,40.90
2018-05-21T20:14:18.708Z,40.80
2018-05-21T20:16:48.849Z,41.80
2018-05-21T20:19:17.539Z,43.20
2018-05-21T20:21:47.965Z,43.70
2018-05-21T20:24:16.626Z,44.20
2018-05-21T20:26:45.414Z,44.20
2018-05-21T20:29:13.430Z,44.90
2018-05-21T20:31:42.883Z,45.00
2018-05-21T20:34:10.672Z,45.00
2018-05-21T20:36:38.466Z,45.80
2018-05-21T20:39:06.310Z,46.60
2018-05-21T20:41:34.121Z,46.70
2018-05-21T20:44:02.987Z,47.00
2018-05-21T20:46:30.926Z,47.40
2018-05-21T20:48:59.571Z,47.10
2018-05-21T20:51:27.442Z,47.10
2018-05-21T20:53:55.523Z,47.80
2018-05-21T20:56:23.379Z,47.40
2018-05-21T20:58:51.953Z,47.70
2018-05-21T21:01:20.114Z,47.70
2018-05-21T21:03:47.984Z,48.20
2018-05-21T21:06:15.846Z,48.50
2018-05-21T21:08:44.632Z,50.00
2018-05-21T21:11:12.499Z,50.00
2018-05-21T21:13:40.360Z,50.80
2018-05-21T21:16:08.326Z,51.40
2018-05-21T21:18:36.296Z,51.90
2018-05-21T21:21:04.160Z,52.60
2018-05-21T21:23:32.022Z,53.00
2018-05-21T21:25:59.990Z,53.80
2018-05-21T21:28:28.573Z,53.50
2018-05-21T21:30:56.535Z,53.60
2018-05-21T21:33:24.514Z,54.10
2018-05-21T21:35:52.368Z,54.70
2018-05-21T21:38:20.337Z,54.40
2018-05-21T21:40:48.336Z,54.60
2018-05-21T21:43:16.987Z,53.10
2018-05-21T21:45:44.951Z,53.10
2018-05-21T21:48:12.917Z,52.50
2018-05-21T21:50:41.499Z,52.60
2018-05-21T21:53:09.313Z,52.80
2018-05-21T21:55:37.133Z,53.00
2018-05-21T21:58:04.953Z,52.90
2018-05-21T22:00:32.764Z,53.60
2018-05-21T22:03:00.615Z,53.50
2018-05-21T22:05:28.393Z,54.40
2018-05-21T22:07:58.626Z,54.10
2018-05-21T22:10:27.382Z,53.50
2018-05-21T22:12:55.347Z,53.30
2018-05-21T22:15:24.033Z,53.60
2018-05-21T22:17:51.915Z,53.60
2018-05-21T22:20:20.581Z,53.10
2018-05-21T22:22:48.442Z,53.10
2018-05-21T22:25:16.308Z,53.70
2018-05-21T22:27:44.889Z,54.00
2018-05-21T22:30:12.755Z,53.50
2018-05-21T22:32:41.539Z,53.80
2018-05-21T22:35:09.507Z,53.90
2018-05-21T22:37:37.368Z,53.40
2018-05-21T22:40:05.232Z,53.40
2018-05-21T22:42:33.705Z,53.20
2018-05-21T22:45:01.577Z,53.50
2018-05-21T22:47:30.362Z,53.30
2018-05-21T22:49:58.948Z,54.30
2018-05-21T22:52:26.966Z,54.20
2018-05-21T22:54:54.977Z,54.10
2018-05-21T22:57:22.842Z,54.00
2018-05-21T22:59:51.527Z,55.20
2018-05-21T23:02:19.389Z,55.30
2018-05-21T23:04:47.255Z,55.10
2018-05-21T23:07:15.939Z,55.30
2018-05-21T23:09:43.718Z,55.30
2018-05-21T23:12:11.501Z,56.10
2018-05-21T23:14:40.197Z,56.40
2018-05-21T23:17:08.012Z,56.20
2018-05-21T23:19:35.976Z,55.20
2018-05-21T23:22:04.664Z,56.80
2018-05-21T23:24:32.626Z,56.90
2018-05-21T23:27:00.599Z,57.60
2018-05-21T23:29:28.560Z,57.70
2018-05-21T23:31:57.245Z,58.80
2018-05-21T23:34:25.923Z,59.60
2018-05-21T23:36:53.789Z,59.60
2018-05-21T23:39:22.472Z,59.60
2018-05-21T23:41:50.337Z,59.60
2018-05-21T23:44:18.918Z,60.50
2018-05-21T23:46:47.600Z,61.50
2018-05-21T23:49:15.464Z,61.50
2018-05-21T23:51:43.327Z,62.70
2018-05-21T23:54:11.294Z,62.50
2018-05-21T23:56:39.163Z,63.50
2018-05-21T23:59:07.127Z,64.20
